Time;durP1;ratioP1;P1;durP2;ratioP2;P2;SDS_P1;SDS_P2;PMS_P1;PMS_P2;Temp;Humidity;BMP_temperature;BMP_pressure;BME280_temperature;BME280_humidity;BME280_pressure;Samples;Min_cycle;Max_cycle;Signal;HPM_P1;HPM_P2
2023/01/23 00:00:47;;;;;;;;;;;3.20;99.90;;;;;;5113286;28;19912;-56
2023/01/23 00:03:12;;;;;;;;;;;3.30;99.90;;;;;;5114118;28;19915;-56
2023/01/23 00:05:38;;;;;;;;;;;3.30;99.90;;;;;;5113727;28;20051;-56
2023/01/23 00:08:03;;;;;;;;;;;3.30;99.90;;;;;;5112767;28;20413;-56
2023/01/23 00:10:29;;;;;;;;;;;3.20;99.90;;;;;;5126741;27;19916;-56
2023/01/23 00:12:56;;;;;;;;;;;3.30;99.90;;;;;;5133669;27;20438;-56
2023/01/23 00:15:22;;;;;;;;;;;3.30;99.90;;;;;;5133686;27;19911;-56
2023/01/23 00:17:47;;;;;;;;;;;3.30;99.90;;;;;;5118188;27;19916;-56
2023/01/23 00:20:13;;;;;;;;;;;3.30;99.90;;;;;;5112805;28;19915;-56
2023/01/23 00:22:39;;;;;;;;;;;3.20;99.90;;;;;;5113676;28;19958;-56
2023/01/23 00:25:05;;;;;;;;;;;3.30;99.90;;;;;;5113336;28;19955;-56
2023/01/23 00:27:30;;;;;;;;;;;3.30;99.90;;;;;;5112406;28;20002;-56
2023/01/23 00:29:56;;;;;;;;;;;3.30;99.90;;;;;;5113469;28;19961;-56
2023/01/23 00:32:21;;;;;;;;;;;3.30;99.90;;;;;;5112876;28;20463;-56
2023/01/23 00:34:47;;;;;;;;;;;3.30;99.90;;;;;;5132944;27;20295;-56
2023/01/23 00:37:13;;;;;;;;;;;3.30;99.90;;;;;;5133728;27;20004;-56
2023/01/23 00:39:39;;;;;;;;;;;3.30;99.90;;;;;;5133811;27;20008;-56
2023/01/23 00:42:05;;;;;;;;;;;3.30;99.90;;;;;;5131082;27;19912;-56
2023/01/23 00:44:30;;;;;;;;;;;3.30;99.90;;;;;;5132567;27;19907;-56
2023/01/23 00:46:56;;;;;;;;;;;3.30;99.90;;;;;;5113182;27;19920;-56
2023/01/23 00:49:22;;;;;;;;;;;3.30;99.90;;;;;;5112392;28;20383;-56
2023/01/23 00:51:49;;;;;;;;;;;3.30;99.90;;;;;;5113029;28;19971;-56
2023/01/23 00:54:15;;;;;;;;;;;3.30;99.90;;;;;;5112732;28;19941;-56
2023/01/23 00:56:42;;;;;;;;;;;3.30;99.90;;;;;;5111520;28;21567;-56
2023/01/23 00:59:08;;;;;;;;;;;3.30;99.90;;;;;;5113112;28;19943;-56
2023/01/23 01:01:33;;;;;;;;;;;3.30;99.90;;;;;;5113057;28;20313;-56
2023/01/23 01:03:59;;;;;;;;;;;3.30;99.90;;;;;;5125084;28;19994;-56
2023/01/23 01:06:24;;;;;;;;;;;3.30;99.90;;;;;;5133412;28;19970;-56
2023/01/23 01:08:50;;;;;;;;;;;3.30;99.90;;;;;;5132258;28;19961;-56
2023/01/23 01:11:16;;;;;;;;;;;3.30;99.90;;;;;;5115259;28;19912;-56
2023/01/23 01:13:42;;;;;;;;;;;3.30;99.90;;;;;;5112530;28;19912;-56
2023/01/23 01:16:07;;;;;;;;;;;3.30;99.90;;;;;;5112215;28;19912;-56
2023/01/23 01:18:33;;;;;;;;;;;3.30;99.90;;;;;;5112492;28;20278;-56
2023/01/23 01:20:59;;;;;;;;;;;3.30;99.90;;;;;;5112674;28;20381;-56
2023/01/23 01:23:24;;;;;;;;;;;3.30;99.90;;;;;;5112158;28;19912;-56
2023/01/23 01:25:50;;;;;;;;;;;3.30;99.90;;;;;;5112634;28;19916;-56
2023/01/23 01:28:15;;;;;;;;;;;3.30;99.90;;;;;;5097719;28;19915;-56
2023/01/23 01:30:41;;;;;;;;;;;3.30;99.90;;;;;;5115940;28;20003;-56
2023/01/23 01:33:06;;;;;;;;;;;3.30;99.90;;;;;;5122208;27;19907;-56
2023/01/23 01:35:32;;;;;;;;;;;3.30;99.90;;;;;;5137192;27;19911;-56
2023/01/23 01:37:58;;;;;;;;;;;3.30;99.90;;;;;;5136519;27;20048;-55
2023/01/23 01:40:25;;;;;;;;;;;3.30;99.90;;;;;;5123963;27;19908;-56
2023/01/23 01:43:01;;;;;;;;;;;3.30;99.90;;;;;;5116588;28;19915;-56
2023/01/23 01:45:45;;;;;;;;;;;3.30;99.90;;;;;;5115801;28;19911;-56
2023/01/23 01:48:10;;;;;;;;;;;3.20;99.90;;;;;;5116239;28;19911;-56
2023/01/23 01:50:36;;;;;;;;;;;3.30;99.90;;;;;;5116521;28;19914;-56
2023/01/23 01:53:01;;;;;;;;;;;3.20;99.90;;;;;;5115507;28;19907;-56
2023/01/23 01:55:27;;;;;;;;;;;3.20;99.90;;;;;;5116394;28;20282;-56
2023/01/23 01:57:53;;;;;;;;;;;3.20;99.90;;;;;;5116336;28;20040;-56
2023/01/23 02:00:19;;;;;;;;;;;3.20;99.90;;;;;;5115392;27;19939;-56
2023/01/23 02:02:52;;;;;;;;;;;3.20;99.90;;;;;;5117123;27;20002;-56
2023/01/23 02:05:23;;;;;;;;;;;3.20;99.90;;;;;;5135309;27;19915;-56
2023/01/23 02:07:53;;;;;;;;;;;3.20;99.90;;;;;;5136742;27;19937;-56
2023/01/23 02:10:18;;;;;;;;;;;3.20;99.90;;;;;;5128956;27;19912;-56
2023/01/23 02:12:45;;;;;;;;;;;3.20;99.90;;;;;;5115079;28;19919;-55
2023/01/23 02:15:10;;;;;;;;;;;3.20;99.90;;;;;;5115948;28;19915;-56
2023/01/23 02:17:37;;;;;;;;;;;3.20;99.90;;;;;;5116016;28;19908;-56
2023/01/23 02:20:16;;;;;;;;;;;3.20;99.90;;;;;;5115163;28;19908;-56
2023/01/23 02:22:49;;;;;;;;;;;3.20;99.90;;;;;;5115678;28;20010;-56
2023/01/23 02:25:14;;;;;;;;;;;3.20;99.90;;;;;;5115818;28;20104;-56
2023/01/23 02:27:39;;;;;;;;;;;3.20;99.90;;;;;;5115032;28;20449;-56
2023/01/23 02:30:06;;;;;;;;;;;3.20;99.90;;;;;;5131817;27;20266;-56
2023/01/23 02:32:32;;;;;;;;;;;3.20;99.90;;;;;;5134519;27;19926;-56
2023/01/23 02:35:07;;;;;;;;;;;3.20;99.90;;;;;;5134049;27;19912;-56
2023/01/23 02:37:34;;;;;;;;;;;3.20;99.90;;;;;;5128034;27;19965;-56
2023/01/23 02:40:02;;;;;;;;;;;3.20;99.90;;;;;;5114670;28;20369;-56
2023/01/23 02:42:29;;;;;;;;;;;3.20;99.90;;;;;;5114486;28;19915;-56
2023/01/23 02:44:55;;;;;;;;;;;3.30;99.90;;;;;;5115386;28;19908;-56
2023/01/23 02:47:21;;;;;;;;;;;3.30;99.90;;;;;;5115490;28;20018;-55
2023/01/23 02:49:46;;;;;;;;;;;3.30;99.90;;;;;;5114328;28;20410;-56
2023/01/23 02:52:12;;;;;;;;;;;3.30;99.90;;;;;;5115117;27;20003;-56
2023/01/23 02:54:39;;;;;;;;;;;3.30;99.90;;;;;;5114084;28;19927;-56
2023/01/23 02:57:04;;;;;;;;;;;3.30;99.90;;;;;;5115298;28;19915;-56
2023/01/23 03:02:14;;;;;;;;;;;3.30;99.90;;;;;;5114570;28;19915;-56
2023/01/23 03:04:40;;;;;;;;;;;3.30;99.90;;;;;;5115028;28;20278;-56
2023/01/23 03:07:06;;;;;;;;;;;3.30;99.90;;;;;;5114963;28;20052;-56
2023/01/23 03:09:32;;;;;;;;;;;3.30;99.90;;;;;;5114094;28;20007;-56
2023/01/23 03:11:57;;;;;;;;;;;3.30;99.90;;;;;;5115079;28;19915;-56
2023/01/23 03:14:23;;;;;;;;;;;3.30;99.90;;;;;;5114884;28;19930;-56
2023/01/23 03:16:50;;;;;;;;;;;3.30;99.90;;;;;;5113877;28;19912;-56
2023/01/23 03:19:16;;;;;;;;;;;3.30;99.90;;;;;;5114846;28;19908;-56
2023/01/23 03:21:41;;;;;;;;;;;3.30;99.90;;;;;;5114274;28;19911;-56
2023/01/23 03:24:08;;;;;;;;;;;3.30;99.90;;;;;;5113580;28;19907;-56
2023/01/23 03:26:34;;;;;;;;;;;3.30;99.90;;;;;;5114396;28;20018;-56
2023/01/23 03:31:44;;;;;;;;;;;3.30;99.90;;;;;;5134334;27;20295;-56
2023/01/23 03:34:09;;;;;;;;;;;3.30;99.90;;;;;;5134846;27;19911;-56
2023/01/23 03:36:36;;;;;;;;;;;3.30;99.90;;;;;;5133503;27;19964;-56
2023/01/23 03:41:47;;;;;;;;;;;3.30;99.90;;;;;;5113846;28;19965;-56
2023/01/23 03:44:12;;;;;;;;;;;3.30;99.90;;;;;;5113126;27;19916;-56
2023/01/23 03:46:38;;;;;;;;;;;3.30;99.90;;;;;;5114037;28;20513;-56
2023/01/23 03:49:03;;;;;;;;;;;3.30;99.90;;;;;;5114151;28;19926;-56
2023/01/23 03:51:28;;;;;;;;;;;3.30;99.90;;;;;;5112239;28;19958;-56
2023/01/23 03:53:54;;;;;;;;;;;3.30;99.90;;;;;;5113968;28;19926;-56
2023/01/23 03:56:19;;;;;;;;;;;3.20;99.90;;;;;;5114095;28;19998;-55
2023/01/23 03:58:45;;;;;;;;;;;3.30;99.90;;;;;;5117821;27;19919;-56
2023/01/23 04:01:11;;;;;;;;;;;3.30;99.90;;;;;;5134442;27;19908;-56
2023/01/23 04:03:36;;;;;;;;;;;3.30;99.90;;;;;;5134176;27;19908;-56
2023/01/23 04:06:02;;;;;;;;;;;3.20;99.90;;;;;;5133599;27;20259;-56
2023/01/23 04:08:28;;;;;;;;;;;3.20;99.90;;;;;;5134414;27;19907;-56
2023/01/23 04:11:04;;;;;;;;;;;3.20;99.90;;;;;;5134208;27;19907;-56
2023/01/23 04:13:29;;;;;;;;;;;3.20;99.90;;;;;;5130541;27;19943;-56
2023/01/23 04:15:55;;;;;;;;;;;3.20;99.90;;;;;;5134083;27;20277;-56
2023/01/23 04:18:21;;;;;;;;;;;3.20;99.90;;;;;;5134143;27;19907;-56
2023/01/23 04:20:46;;;;;;;;;;;3.20;99.90;;;;;;5133337;27;19998;-56
2023/01/23 04:23:12;;;;;;;;;;;3.20;99.90;;;;;;5118176;27;19924;-56
2023/01/23 04:25:37;;;;;;;;;;;3.20;99.90;;;;;;5113544;28;20327;-56
2023/01/23 04:28:03;;;;;;;;;;;3.20;99.90;;;;;;5112650;28;19917;-56
2023/01/23 04:30:28;;;;;;;;;;;3.20;99.90;;;;;;5113388;28;20374;-56
2023/01/23 04:32:54;;;;;;;;;;;3.20;99.90;;;;;;5113514;28;19999;-56
2023/01/23 04:35:19;;;;;;;;;;;3.20;99.90;;;;;;5112641;28;20324;-56
2023/01/23 04:37:45;;;;;;;;;;;3.20;99.90;;;;;;5113203;28;19908;-56
2023/01/23 04:40:10;;;;;;;;;;;3.20;99.90;;;;;;5112276;27;20335;-56
2023/01/23 04:42:36;;;;;;;;;;;3.20;99.90;;;;;;5113211;28;19914;-56
2023/01/23 04:45:01;;;;;;;;;;;3.20;99.90;;;;;;5113129;28;19908;-56
2023/01/23 04:47:27;;;;;;;;;;;3.20;99.90;;;;;;5112427;28;19992;-56
2023/01/23 04:49:52;;;;;;;;;;;3.20;99.90;;;;;;5114191;28;20377;-56
2023/01/23 04:52:18;;;;;;;;;;;3.20;99.90;;;;;;5132815;27;19912;-56
2023/01/23 04:54:43;;;;;;;;;;;3.20;99.90;;;;;;5123812;27;19920;-56
2023/01/23 04:57:09;;;;;;;;;;;3.20;99.90;;;;;;5113282;28;19934;-56
2023/01/23 04:59:34;;;;;;;;;;;3.20;99.90;;;;;;5112499;28;19959;-56
2023/01/23 05:02:01;;;;;;;;;;;3.20;99.90;;;;;;5113740;28;19915;-55
2023/01/23 05:04:26;;;;;;;;;;;3.20;99.90;;;;;;5117247;28;19966;-56
2023/01/23 05:06:52;;;;;;;;;;;3.30;99.90;;;;;;5117301;28;20444;-56
2023/01/23 05:09:17;;;;;;;;;;;3.20;99.90;;;;;;5116245;27;19912;-56
2023/01/23 05:11:43;;;;;;;;;;;3.20;99.90;;;;;;5117277;28;19908;-56
2023/01/23 05:14:08;;;;;;;;;;;3.20;99.90;;;;;;5117090;28;19908;-56
2023/01/23 05:16:34;;;;;;;;;;;3.20;99.90;;;;;;5116328;28;19911;-55
2023/01/23 05:18:59;;;;;;;;;;;3.20;99.90;;;;;;5117096;28;20050;-56
2023/01/23 05:21:25;;;;;;;;;;;3.20;99.90;;;;;;5118477;27;19963;-55
2023/01/23 05:23:50;;;;;;;;;;;3.20;99.90;;;;;;5136810;27;19908;-56
2023/01/23 05:26:16;;;;;;;;;;;3.20;99.90;;;;;;5137540;27;19915;-56
2023/01/23 05:28:41;;;;;;;;;;;3.20;99.90;;;;;;5137511;27;19953;-56
2023/01/23 05:31:07;;;;;;;;;;;3.20;99.90;;;;;;5116436;27;19911;-56
2023/01/23 05:33:32;;;;;;;;;;;3.20;99.90;;;;;;5116637;28;19908;-56
2023/01/23 05:35:58;;;;;;;;;;;3.30;99.90;;;;;;5116581;27;19912;-56
2023/01/23 05:38:23;;;;;;;;;;;3.20;99.90;;;;;;5116083;28;19998;-56
2023/01/23 05:40:49;;;;;;;;;;;3.20;99.90;;;;;;5116529;28;19943;-56
2023/01/23 05:43:15;;;;;;;;;;;3.20;99.90;;;;;;5116711;28;20385;-56
2023/01/23 05:45:40;;;;;;;;;;;3.20;99.90;;;;;;5115740;28;19912;-56
2023/01/23 05:48:06;;;;;;;;;;;3.20;99.90;;;;;;5116644;28;19953;-56
2023/01/23 05:50:31;;;;;;;;;;;3.20;99.90;;;;;;5115640;28;20006;-56
2023/01/23 05:52:57;;;;;;;;;;;3.20;99.90;;;;;;5130821;27;19955;-56
2023/01/23 05:55:22;;;;;;;;;;;3.20;99.90;;;;;;5137075;27;19908;-56
2023/01/23 05:57:48;;;;;;;;;;;3.20;99.90;;;;;;5136089;27;19927;-56
2023/01/23 06:00:13;;;;;;;;;;;3.20;99.90;;;;;;5130353;27;19956;-56
2023/01/23 06:02:39;;;;;;;;;;;3.20;99.90;;;;;;5123250;27;19923;-56
2023/01/23 06:05:05;;;;;;;;;;;3.20;99.90;;;;;;5120796;27;19965;-56
2023/01/23 06:07:30;;;;;;;;;;;3.20;99.90;;;;;;5116064;28;19944;-56
2023/01/23 06:09:56;;;;;;;;;;;3.20;99.90;;;;;;5116108;28;20358;-56
2023/01/23 06:12:21;;;;;;;;;;;3.20;99.90;;;;;;5114791;27;19911;-56
2023/01/23 06:14:47;;;;;;;;;;;3.20;99.90;;;;;;5114867;28;19908;-56
2023/01/23 06:17:12;;;;;;;;;;;3.20;99.90;;;;;;5119952;27;20370;-56
2023/01/23 06:19:38;;;;;;;;;;;3.20;99.90;;;;;;5129438;27;19915;-56
2023/01/23 06:22:03;;;;;;;;;;;3.20;99.90;;;;;;5136649;27;20445;-56
2023/01/23 06:24:29;;;;;;;;;;;3.10;99.90;;;;;;5124524;27;19912;-56
2023/01/23 06:26:54;;;;;;;;;;;3.10;99.90;;;;;;5114887;28;20386;-56
2023/01/23 06:29:20;;;;;;;;;;;3.20;99.90;;;;;;5125275;27;19916;-56
2023/01/23 06:31:46;;;;;;;;;;;3.10;99.90;;;;;;5125318;27;19915;-56
2023/01/23 06:34:12;;;;;;;;;;;3.20;99.90;;;;;;5121636;27;19919;-56
2023/01/23 06:36:39;;;;;;;;;;;3.10;99.90;;;;;;5122874;27;19908;-56
2023/01/23 06:39:04;;;;;;;;;;;3.20;99.90;;;;;;5125551;27;19914;-56
2023/01/23 06:41:30;;;;;;;;;;;3.10;99.90;;;;;;5122367;27;19916;-56
2023/01/23 06:43:55;;;;;;;;;;;3.10;99.90;;;;;;5123396;27;19912;-56
2023/01/23 06:46:21;;;;;;;;;;;3.10;99.90;;;;;;5123477;27;19927;-55
2023/01/23 06:48:46;;;;;;;;;;;3.10;99.90;;;;;;5123272;27;20353;-56
2023/01/23 06:51:12;;;;;;;;;;;3.10;99.90;;;;;;5121718;27;20427;-56
2023/01/23 06:53:37;;;;;;;;;;;3.10;99.90;;;;;;5123154;27;19920;-56
2023/01/23 06:56:04;;;;;;;;;;;3.10;99.90;;;;;;5124264;27;19911;-56
2023/01/23 06:58:30;;;;;;;;;;;3.20;99.90;;;;;;5122559;27;19957;-56
2023/01/23 07:00:56;;;;;;;;;;;3.20;99.90;;;;;;5120828;27;19920;-56
2023/01/23 07:03:21;;;;;;;;;;;3.20;99.90;;;;;;5124539;27;20451;-56
2023/01/23 07:05:47;;;;;;;;;;;3.20;99.90;;;;;;5122915;27;19919;-56
2023/01/23 07:08:12;;;;;;;;;;;3.20;99.90;;;;;;5122505;27;19912;-56
2023/01/23 07:10:38;;;;;;;;;;;3.20;99.90;;;;;;5118528;27;19911;-55
2023/01/23 07:13:04;;;;;;;;;;;3.20;99.90;;;;;;5120084;27;19920;-56
2023/01/23 07:15:29;;;;;;;;;;;3.20;99.90;;;;;;5119407;27;19915;-56
2023/01/23 07:17:55;;;;;;;;;;;3.20;99.90;;;;;;5123329;27;19908;-56
2023/01/23 07:20:21;;;;;;;;;;;3.10;99.90;;;;;;5123049;27;20367;-56
2023/01/23 07:22:46;;;;;;;;;;;3.20;99.90;;;;;;5123600;27;19914;-56
2023/01/23 07:25:12;;;;;;;;;;;3.20;99.90;;;;;;5121150;27;19924;-56
2023/01/23 07:27:37;;;;;;;;;;;3.20;99.90;;;;;;5128185;27;19912;-56
2023/01/23 07:30:03;;;;;;;;;;;3.10;99.90;;;;;;5118904;27;20362;-56
2023/01/23 07:32:28;;;;;;;;;;;3.10;99.90;;;;;;5125209;27;19962;-56
2023/01/23 07:34:54;;;;;;;;;;;3.10;99.90;;;;;;5123339;27;20278;-56
2023/01/23 07:37:19;;;;;;;;;;;3.10;99.90;;;;;;5129064;27;19922;-56
2023/01/23 07:39:45;;;;;;;;;;;3.10;99.90;;;;;;5120213;27;20044;-56
2023/01/23 07:42:10;;;;;;;;;;;3.10;99.90;;;;;;5113834;28;19916;-56
2023/01/23 07:44:36;;;;;;;;;;;3.10;99.90;;;;;;5112014;27;20013;-56
2023/01/23 07:47:01;;;;;;;;;;;3.10;99.90;;;;;;5114771;27;19977;-56
2023/01/23 07:49:27;;;;;;;;;;;3.10;99.90;;;;;;5113167;28;20385;-56
2023/01/23 07:51:52;;;;;;;;;;;3.10;99.90;;;;;;5112377;28;19919;-56
2023/01/23 07:54:18;;;;;;;;;;;3.10;99.90;;;;;;5113728;28;19919;-56
2023/01/23 07:56:43;;;;;;;;;;;3.10;99.90;;;;;;5113907;28;20007;-56
2023/01/23 07:59:10;;;;;;;;;;;3.10;99.90;;;;;;5113161;28;19907;-56
2023/01/23 08:01:36;;;;;;;;;;;3.10;99.90;;;;;;5116326;27;19915;-55
2023/01/23 08:04:01;;;;;;;;;;;3.20;99.90;;;;;;5114449;27;19923;-56
2023/01/23 08:06:26;;;;;;;;;;;3.10;99.90;;;;;;5117380;27;20356;-56
2023/01/23 08:08:52;;;;;;;;;;;3.10;99.90;;;;;;5131166;27;19915;-56
2023/01/23 08:11:18;;;;;;;;;;;3.20;99.90;;;;;;5094641;28;20360;-55
2023/01/23 08:13:48;;;;;;;;;;;3.20;99.90;;;;;;5115307;27;20304;-55
2023/01/23 08:16:13;;;;;;;;;;;3.20;99.90;;;;;;5111957;27;19959;-56
2023/01/23 08:18:38;;;;;;;;;;;3.20;99.90;;;;;;5120634;27;19958;-56
2023/01/23 08:21:04;;;;;;;;;;;3.20;99.90;;;;;;5120310;27;19915;-56
2023/01/23 08:23:31;;;;;;;;;;;3.20;99.90;;;;;;5123821;27;20066;-56
2023/01/23 08:25:58;;;;;;;;;;;3.20;99.90;;;;;;5097549;27;20278;-56
2023/01/23 08:28:24;;;;;;;;;;;3.20;99.90;;;;;;5115648;27;20002;-56
2023/01/23 08:30:49;;;;;;;;;;;3.20;99.90;;;;;;5113374;28;19912;-56
2023/01/23 08:33:15;;;;;;;;;;;3.20;99.90;;;;;;5112786;28;19914;-56
2023/01/23 08:35:51;;;;;;;;;;;3.30;99.90;;;;;;5113310;28;19908;-56
2023/01/23 08:38:18;;;;;;;;;;;3.30;99.90;;;;;;5121305;27;20003;-56
2023/01/23 08:40:44;;;;;;;;;;;3.30;99.90;;;;;;5132840;27;19918;-56
2023/01/23 08:43:12;;;;;;;;;;;3.30;99.90;;;;;;5132389;27;19947;-56
2023/01/23 08:45:38;;;;;;;;;;;3.40;99.90;;;;;;5123287;27;20021;-56
2023/01/23 08:48:04;;;;;;;;;;;3.40;99.90;;;;;;5115162;27;20080;-56
2023/01/23 08:50:30;;;;;;;;;;;3.40;99.90;;;;;;5113555;28;19908;-56
2023/01/23 08:52:56;;;;;;;;;;;3.40;99.90;;;;;;5112575;28;20374;-56
2023/01/23 08:55:21;;;;;;;;;;;3.40;99.90;;;;;;5112734;28;19908;-56
2023/01/23 08:57:46;;;;;;;;;;;3.50;99.90;;;;;;5112705;28;20376;-56
2023/01/23 09:00:12;;;;;;;;;;;3.50;99.90;;;;;;5112887;28;19908;-56
2023/01/23 09:02:38;;;;;;;;;;;3.50;99.90;;;;;;5112514;28;19908;-56
2023/01/23 09:05:03;;;;;;;;;;;3.50;99.90;;;;;;5114495;28;19919;-56
2023/01/23 09:07:29;;;;;;;;;;;3.50;99.90;;;;;;5118421;28;19911;-55
2023/01/23 09:09:54;;;;;;;;;;;3.60;99.90;;;;;;5118493;28;19916;-56
2023/01/23 09:12:20;;;;;;;;;;;3.60;99.90;;;;;;5124193;28;19969;-56
2023/01/23 09:14:46;;;;;;;;;;;3.60;99.90;;;;;;5126524;28;19914;-56
2023/01/23 09:17:11;;;;;;;;;;;3.60;99.90;;;;;;5131475;28;19907;-56
2023/01/23 09:19:37;;;;;;;;;;;3.70;99.90;;;;;;5112436;28;19908;-56
2023/01/23 09:22:03;;;;;;;;;;;3.70;99.90;;;;;;5112283;28;20373;-55
2023/01/23 09:24:29;;;;;;;;;;;3.70;99.90;;;;;;5118239;28;19916;-56
2023/01/23 09:26:54;;;;;;;;;;;3.80;99.90;;;;;;5121072;28;19966;-56
2023/01/23 09:29:20;;;;;;;;;;;3.70;99.90;;;;;;5116477;27;20030;-56
2023/01/23 09:31:45;;;;;;;;;;;3.80;99.90;;;;;;5121769;28;19915;-56
2023/01/23 09:34:10;;;;;;;;;;;3.80;99.90;;;;;;5123615;28;19959;-56
2023/01/23 09:36:36;;;;;;;;;;;3.80;99.90;;;;;;5121068;28;20282;-56
2023/01/23 09:39:02;;;;;;;;;;;3.80;99.90;;;;;;5115261;28;19911;-56
2023/01/23 09:41:28;;;;;;;;;;;3.90;99.90;;;;;;5121094;28;20373;-56
2023/01/23 09:44:12;;;;;;;;;;;3.90;99.90;;;;;;5120329;28;19975;-56
2023/01/23 09:46:41;;;;;;;;;;;3.90;99.90;;;;;;5125797;28;19916;-56
2023/01/23 09:49:20;;;;;;;;;;;3.90;99.90;;;;;;5134590;27;19915;-55
2023/01/23 09:51:49;;;;;;;;;;;3.90;99.90;;;;;;5129712;27;19911;-55
2023/01/23 09:54:20;;;;;;;;;;;3.90;99.90;;;;;;5115749;27;19969;-55
2023/01/23 09:56:46;;;;;;;;;;;3.90;99.90;;;;;;5118695;27;19965;-56
2023/01/23 09:59:16;;;;;;;;;;;3.90;99.90;;;;;;5121644;27;20374;-56
2023/01/23 10:01:42;;;;;;;;;;;4.00;99.90;;;;;;5117173;27;20289;-55
2023/01/23 10:04:10;;;;;;;;;;;4.00;99.90;;;;;;5117666;27;19912;-56
2023/01/23 10:06:50;;;;;;;;;;;4.00;99.90;;;;;;5115360;27;19915;-54
2023/01/23 10:09:31;;;;;;;;;;;4.00;99.90;;;;;;5127612;27;20427;-56
2023/01/23 10:12:15;;;;;;;;;;;4.10;99.90;;;;;;5127611;27;19911;-55
2023/01/23 10:14:56;;;;;;;;;;;4.00;99.90;;;;;;5126807;27;20426;-56
2023/01/23 10:17:21;;;;;;;;;;;4.00;99.90;;;;;;5127083;27;20338;-56
2023/01/23 10:20:02;;;;;;;;;;;4.10;99.90;;;;;;5135841;27;19907;-55
2023/01/23 10:22:32;;;;;;;;;;;4.10;99.90;;;;;;5135708;27;19912;-56
2023/01/23 10:24:59;;;;;;;;;;;4.10;99.90;;;;;;5132030;27;19915;-56
2023/01/23 10:27:33;;;;;;;;;;;4.10;99.90;;;;;;5128379;27;20002;-56
2023/01/23 10:30:01;;;;;;;;;;;4.10;99.90;;;;;;5136948;27;19911;-56
2023/01/23 10:32:28;;;;;;;;;;;4.10;99.90;;;;;;5135713;27;19907;-56
2023/01/23 10:34:56;;;;;;;;;;;4.10;99.90;;;;;;5136022;27;19912;-56
2023/01/23 10:37:34;;;;;;;;;;;4.10;99.90;;;;;;5116941;27;20267;-56
2023/01/23 10:41:12;;;;;;;;;;;4.10;99.90;;;;;;5111872;27;19969;-56
2023/01/23 10:43:12;;;;;;;;;;;4.10;99.90;;;;;;5127534;27;20297;-56
2023/01/23 10:45:38;;;;;;;;;;;4.10;99.90;;;;;;5133610;27;20006;-56
2023/01/23 10:48:24;;;;;;;;;;;4.10;99.90;;;;;;5112065;28;19919;-56
2023/01/23 10:50:50;;;;;;;;;;;4.10;99.90;;;;;;5114324;28;19912;-56
2023/01/23 10:53:19;;;;;;;;;;;4.10;99.90;;;;;;5119360;27;19919;-55
2023/01/23 10:55:44;;;;;;;;;;;4.10;99.90;;;;;;5126084;27;19919;-55
2023/01/23 10:58:22;;;;;;;;;;;4.10;99.90;;;;;;5130262;27;20112;-56
2023/01/23 11:00:48;;;;;;;;;;;4.20;99.90;;;;;;5133219;27;19915;-55
2023/01/23 11:03:19;;;;;;;;;;;4.20;99.90;;;;;;5120400;27;19912;-56
2023/01/23 11:05:52;;;;;;;;;;;4.20;99.90;;;;;;5134360;27;19911;-56
2023/01/23 11:08:22;;;;;;;;;;;4.20;99.90;;;;;;5133842;27;19911;-56
2023/01/23 11:10:47;;;;;;;;;;;4.20;99.90;;;;;;5115935;27;20293;-55
2023/01/23 11:13:27;;;;;;;;;;;4.20;99.90;;;;;;5128166;27;19918;-56
2023/01/23 11:15:52;;;;;;;;;;;4.20;99.90;;;;;;5128949;27;20143;-55
2023/01/23 11:18:26;;;;;;;;;;;4.20;99.90;;;;;;5125077;27;20033;-55
2023/01/23 11:20:54;;;;;;;;;;;4.20;99.90;;;;;;5117623;27;20374;-56
2023/01/23 11:23:20;;;;;;;;;;;4.30;99.90;;;;;;5135161;27;19911;-56
2023/01/23 11:25:49;;;;;;;;;;;4.30;99.90;;;;;;5135665;27;19918;-56
2023/01/23 11:28:29;;;;;;;;;;;4.30;99.90;;;;;;5118355;27;20374;-56
2023/01/23 11:31:12;;;;;;;;;;;4.30;99.90;;;;;;5115111;28;19914;-56
2023/01/23 11:33:46;;;;;;;;;;;4.30;99.90;;;;;;5114919;28;19919;-56
2023/01/23 11:36:18;;;;;;;;;;;4.30;99.90;;;;;;5115338;27;19912;-55
2023/01/23 11:38:48;;;;;;;;;;;4.30;99.90;;;;;;5115274;27;20354;-56
2023/01/23 11:41:13;;;;;;;;;;;4.30;99.90;;;;;;5116123;27;19919;-56
2023/01/23 11:43:40;;;;;;;;;;;4.30;99.90;;;;;;5113848;28;19912;-55
2023/01/23 11:46:24;;;;;;;;;;;4.30;99.90;;;;;;5121250;27;20014;-56
2023/01/23 11:48:52;;;;;;;;;;;4.30;99.90;;;;;;5135365;27;19946;-56
2023/01/23 11:51:30;;;;;;;;;;;4.40;99.90;;;;;;5125896;27;19965;-56
2023/01/23 11:54:05;;;;;;;;;;;4.40;99.90;;;;;;5114432;28;20544;-55
2023/01/23 11:56:33;;;;;;;;;;;4.40;99.90;;;;;;5114225;28;19951;-55
2023/01/23 11:58:59;;;;;;;;;;;4.40;99.90;;;;;;5115134;28;19915;-56
2023/01/23 12:01:33;;;;;;;;;;;4.40;99.90;;;;;;5114779;28;19908;-56
2023/01/23 12:04:08;;;;;;;;;;;4.40;99.90;;;;;;5114136;28;19961;-56
2023/01/23 12:06:33;;;;;;;;;;;4.30;99.90;;;;;;5114276;28;19916;-56
2023/01/23 12:09:11;;;;;;;;;;;4.40;99.90;;;;;;5114461;28;19915;-55
2023/01/23 12:11:48;;;;;;;;;;;4.40;99.90;;;;;;5113333;28;19908;-56
2023/01/23 12:14:19;;;;;;;;;;;4.40;99.90;;;;;;5114499;28;19908;-56
2023/01/23 12:17:00;;;;;;;;;;;4.50;99.90;;;;;;5114421;28;19908;-56
2023/01/23 12:19:26;;;;;;;;;;;4.50;99.90;;;;;;5113867;28;19907;-56
2023/01/23 12:22:10;;;;;;;;;;;4.50;99.90;;;;;;5114368;28;20251;-56
2023/01/23 12:24:54;;;;;;;;;;;4.50;99.90;;;;;;5113591;28;20396;-55
2023/01/23 12:27:27;;;;;;;;;;;4.50;99.90;;;;;;5113593;28;20394;-55
2023/01/23 12:30:02;;;;;;;;;;;4.60;99.90;;;;;;5124841;27;19917;-56
2023/01/23 12:32:28;;;;;;;;;;;4.60;99.90;;;;;;5134192;27;19908;-56
2023/01/23 12:34:56;;;;;;;;;;;4.60;99.90;;;;;;5129597;27;19917;-56
2023/01/23 12:37:40;;;;;;;;;;;4.70;99.90;;;;;;5113939;28;19912;-55
2023/01/23 12:40:10;;;;;;;;;;;4.70;99.90;;;;;;5124689;27;19918;-55
2023/01/23 12:42:54;;;;;;;;;;;4.70;99.90;;;;;;5123417;27;19907;-56
2023/01/23 12:45:21;;;;;;;;;;;4.70;99.90;;;;;;5133888;27;20285;-55
2023/01/23 12:47:56;;;;;;;;;;;4.80;99.90;;;;;;5118346;27;19921;-56
2023/01/23 12:50:40;;;;;;;;;;;4.70;99.90;;;;;;5134532;27;20269;-56
2023/01/23 12:53:09;;;;;;;;;;;4.70;99.90;;;;;;5122467;27;19954;-55
2023/01/23 12:55:38;;;;;;;;;;;4.70;99.90;;;;;;5120732;27;19968;-55
2023/01/23 12:58:03;;;;;;;;;;;4.70;99.90;;;;;;5119861;27;19911;-55
2023/01/23 13:00:48;;;;;;;;;;;4.70;99.90;;;;;;5121512;27;20303;-56
2023/01/23 13:03:20;;;;;;;;;;;4.70;99.90;;;;;;5122146;28;20312;-56
2023/01/23 13:06:14;;;;;;;;;;;4.70;99.90;;;;;;5128560;28;20354;-56
2023/01/23 13:08:40;;;;;;;;;;;4.80;99.90;;;;;;5068555;28;20419;-55
2023/01/23 13:13:53;;;;;;;;;;;4.80;99.90;;;;;;5124725;28;20266;-56
2023/01/23 13:16:20;;;;;;;;;;;4.80;99.90;;;;;;5122410;28;19911;-55
2023/01/23 13:22:00;;;;;;;;;;;4.80;99.90;;;;;;5113314;28;20057;-55
2023/01/23 13:27:33;;;;;;;;;;;4.80;99.90;;;;;;5138292;27;19965;-55
2023/01/23 13:29:59;;;;;;;;;;;4.80;99.90;;;;;;5138157;27;19960;-56
2023/01/23 13:32:27;;;;;;;;;;;4.80;99.90;;;;;;5122379;27;19908;-56
2023/01/23 13:34:53;;;;;;;;;;;4.80;99.90;;;;;;5130199;27;19916;-55
2023/01/23 13:37:27;;;;;;;;;;;4.70;99.90;;;;;;5117563;28;19965;-56
2023/01/23 13:40:13;;;;;;;;;;;4.80;99.90;;;;;;5133178;27;20350;-56
2023/01/23 13:42:38;;;;;;;;;;;4.70;99.90;;;;;;5118632;27;19953;-55
2023/01/23 13:45:23;;;;;;;;;;;4.80;99.90;;;;;;5118052;27;19911;-55
2023/01/23 13:50:43;;;;;;;;;;;4.80;99.90;;;;;;5136456;27;19919;-56
2023/01/23 13:58:44;;;;;;;;;;;4.80;99.90;;;;;;5117168;27;19964;-55
2023/01/23 14:07:41;;;;;;;;;;;4.70;99.90;;;;;;5134895;27;19976;-55
2023/01/23 14:10:11;;;;;;;;;;;4.70;99.90;;;;;;5126855;27;20007;-56
2023/01/23 14:12:37;;;;;;;;;;;4.80;99.90;;;;;;5116781;28;20370;-56
2023/01/23 14:17:46;;;;;;;;;;;4.80;99.90;;;;;;5116211;28;20262;-56
2023/01/23 14:20:16;;;;;;;;;;;4.80;99.90;;;;;;5116840;28;19911;-56
2023/01/23 14:22:42;;;;;;;;;;;4.80;99.90;;;;;;5118412;27;19912;-56
2023/01/23 14:25:15;;;;;;;;;;;4.80;99.90;;;;;;5115811;27;20362;-56
2023/01/23 14:27:40;;;;;;;;;;;4.80;99.90;;;;;;5116401;28;19931;-56
2023/01/23 14:30:16;;;;;;;;;;;4.80;99.90;;;;;;5121229;27;19912;-56
2023/01/23 14:32:44;;;;;;;;;;;4.80;99.90;;;;;;5122292;27;19999;-56
2023/01/23 14:35:23;;;;;;;;;;;4.80;99.90;;;;;;5129297;27;19911;-56
2023/01/23 14:37:50;;;;;;;;;;;4.80;99.90;;;;;;5134921;27;19961;-56
2023/01/23 14:40:16;;;;;;;;;;;4.80;99.90;;;;;;5131955;27;19908;-56
2023/01/23 14:42:42;;;;;;;;;;;4.80;99.90;;;;;;5136703;27;19908;-55
2023/01/23 14:45:10;;;;;;;;;;;4.80;99.90;;;;;;5130336;27;19964;-55
2023/01/23 14:47:45;;;;;;;;;;;4.70;99.90;;;;;;5125371;27;19920;-56
2023/01/23 14:50:18;;;;;;;;;;;4.70;99.90;;;;;;5116082;28;20020;-56
2023/01/23 14:52:44;;;;;;;;;;;4.70;99.90;;;;;;5121296;27;19911;-56
2023/01/23 14:55:19;;;;;;;;;;;4.60;99.90;;;;;;5123601;27;19973;-56
2023/01/23 14:57:44;;;;;;;;;;;4.60;99.90;;;;;;5115921;28;19908;-56
2023/01/23 15:00:13;;;;;;;;;;;4.60;99.90;;;;;;5115481;28;19914;-56
2023/01/23 15:02:39;;;;;;;;;;;4.60;99.90;;;;;;5115728;28;19908;-56
2023/01/23 15:05:14;;;;;;;;;;;4.50;99.90;;;;;;5116003;28;19915;-55
2023/01/23 15:07:43;;;;;;;;;;;4.50;99.90;;;;;;5115536;27;19968;-56
2023/01/23 15:10:17;;;;;;;;;;;4.50;99.90;;;;;;5115208;27;19912;-56